Time;durP1;ratioP1;P1;durP2;ratioP2;P2;SDS_P1;SDS_P2;PMS_P1;PMS_P2;Temp;Humidity;BMP_temperature;BMP_pressure;BME280_temperature;BME280_humidity;BME280_pressure;Samples;Min_cycle;Max_cycle;Signal;HPM_P1;HPM_P2
2022/01/10 00:00:07;;;;;;;130.68;54.65;;;3.60;99.90;;;;;;4953822;28;20034;-75
2022/01/10 00:02:39;;;;;;;126.30;54.13;;;3.70;99.90;;;;;;4982433;28;20649;-74
2022/01/10 00:05:07;;;;;;;123.80;55.78;;;3.50;99.90;;;;;;4982959;28;20137;-74
2022/01/10 00:07:34;;;;;;;139.65;58.85;;;3.50;99.90;;;;;;4966419;28;20383;-75
2022/01/10 00:10:05;;;;;;;139.05;62.22;;;3.60;99.90;;;;;;4968252;28;20130;-74
2022/01/10 00:12:31;;;;;;;135.90;53.85;;;3.60;99.90;;;;;;4974032;28;20043;-74
2022/01/10 00:14:58;;;;;;;126.10;53.72;;;3.60;99.90;;;;;;4963599;28;20046;-75
2022/01/10 00:17:25;;;;;;;135.68;57.35;;;3.60;99.90;;;;;;4947630;28;20046;-75
2022/01/10 00:19:52;;;;;;;127.82;56.38;;;3.60;99.90;;;;;;4965686;28;20070;-75
2022/01/10 00:22:20;;;;;;;129.43;56.10;;;3.60;99.90;;;;;;4964919;28;20073;-74
2022/01/10 00:24:46;;;;;;;140.02;57.33;;;3.60;99.90;;;;;;4987854;23;20070;-72
2022/01/10 00:27:13;;;;;;;133.35;53.33;;;3.60;99.90;;;;;;4994143;28;20045;-72
2022/01/10 00:29:40;;;;;;;142.70;54.45;;;3.60;99.90;;;;;;4998410;28;20042;-72
2022/01/10 00:32:07;;;;;;;133.30;56.70;;;3.50;99.90;;;;;;4998087;28;20056;-75
2022/01/10 00:34:34;;;;;;;141.38;58.85;;;3.60;99.90;;;;;;4998480;28;20389;-72
2022/01/10 00:37:01;;;;;;;129.90;57.08;;;3.50;99.90;;;;;;4981005;28;20042;-73
2022/01/10 00:39:27;;;;;;;124.13;53.90;;;3.60;99.90;;;;;;4998543;28;20046;-75
2022/01/10 00:41:57;;;;;;;137.13;55.05;;;3.50;99.90;;;;;;4998769;28;20407;-74
2022/01/10 00:44:26;;;;;;;148.43;56.60;;;3.50;99.90;;;;;;4999035;28;20119;-74
2022/01/10 00:46:54;;;;;;;142.38;58.83;;;3.50;99.90;;;;;;5018662;28;20113;-75
2022/01/10 00:49:20;;;;;;;147.95;61.22;;;3.50;99.90;;;;;;4987211;28;20057;-74
2022/01/10 00:51:47;;;;;;;149.05;59.33;;;3.50;99.90;;;;;;4978813;28;20097;-74
2022/01/10 00:54:14;;;;;;;150.82;57.72;;;3.60;99.90;;;;;;4979816;28;20822;-74
2022/01/10 00:56:41;;;;;;;147.55;60.08;;;3.60;99.90;;;;;;4994629;28;20491;-74
2022/01/10 00:59:07;;;;;;;141.98;57.55;;;3.60;99.90;;;;;;4996018;28;20108;-75
2022/01/10 01:01:34;;;;;;;127.57;54.10;;;3.60;99.90;;;;;;4996747;28;20100;-75
2022/01/10 01:04:02;;;;;;;139.57;57.47;;;3.40;99.90;;;;;;4998723;28;20057;-74
2022/01/10 01:06:29;;;;;;;122.97;54.28;;;3.40;99.90;;;;;;4997367;28;20121;-74
2022/01/10 01:09:01;;;;;;;130.10;56.65;;;3.50;99.90;;;;;;4998744;28;20489;-74
2022/01/10 01:14:05;;;;;;;130.93;52.67;;;3.50;99.90;;;;;;5003924;28;20092;-73
2022/01/10 01:24:24;;;;;;;136.35;52.92;;;3.50;99.90;;;;;;4999002;28;20501;-72
2022/01/10 01:26:52;;;;;;;117.80;46.83;;;3.50;99.90;;;;;;4997374;28;20471;-73
2022/01/10 01:29:25;;;;;;;89.35;38.10;;;3.50;99.90;;;;;;4991063;28;20562;-73
2022/01/10 01:31:52;;;;;;;72.35;33.17;;;3.30;99.90;;;;;;4997008;28;20045;-72
2022/01/10 01:34:21;;;;;;;65.10;33.03;;;3.20;99.90;;;;;;4998705;28;20072;-74
2022/01/10 01:36:52;;;;;;;59.58;27.98;;;3.10;99.90;;;;;;4985405;28;20045;-75
2022/01/10 01:39:24;;;;;;;52.53;26.25;;;3.00;99.90;;;;;;4990712;28;20056;-74
2022/01/10 01:42:06;;;;;;;52.70;25.55;;;2.90;99.90;;;;;;4997253;28;20336;-74
2022/01/10 01:44:34;;;;;;;55.13;28.50;;;2.90;99.90;;;;;;5003167;28;20603;-74
2022/01/10 01:47:02;;;;;;;66.53;29.88;;;3.00;99.90;;;;;;5002978;28;20145;-74
2022/01/10 01:49:29;;;;;;;62.47;31.67;;;3.00;99.90;;;;;;5015284;28;20054;-74
2022/01/10 01:51:56;;;;;;;66.85;33.42;;;3.00;99.90;;;;;;5002156;28;20061;-74
2022/01/10 01:54:24;;;;;;;78.57;36.22;;;3.00;99.90;;;;;;4982442;28;20146;-73
2022/01/10 01:56:52;;;;;;;79.82;38.10;;;3.10;99.90;;;;;;4981834;28;20066;-74
2022/01/10 01:59:19;;;;;;;85.43;37.92;;;3.10;99.90;;;;;;5002016;28;20042;-73
2022/01/10 02:01:46;;;;;;;92.55;41.42;;;3.20;99.90;;;;;;4996908;28;20049;-73
2022/01/10 02:04:13;;;;;;;111.90;48.30;;;3.30;99.90;;;;;;4985206;28;20054;-74
2022/01/10 02:06:42;;;;;;;129.82;52.78;;;3.30;99.90;;;;;;5000679;28;20073;-73
2022/01/10 02:09:14;;;;;;;142.02;59.58;;;3.30;99.90;;;;;;4973254;28;20054;-73
2022/01/10 02:11:42;;;;;;;138.63;58.75;;;3.40;99.90;;;;;;4999287;28;20097;-73
2022/01/10 02:14:09;;;;;;;152.35;59.90;;;3.40;99.90;;;;;;5000663;28;20053;-73
2022/01/10 02:16:51;;;;;;;147.57;61.97;;;3.50;99.90;;;;;;5016722;28;20141;-73
2022/01/10 02:19:56;;;;;;;179.38;65.95;;;3.40;99.90;;;;;;4999444;28;20550;-73
2022/01/10 02:22:25;;;;;;;167.50;64.85;;;3.50;99.90;;;;;;5017192;28;20053;-72
2022/01/10 02:25:05;;;;;;;174.68;64.63;;;3.50;99.90;;;;;;4996065;28;20141;-73
2022/01/10 02:27:32;;;;;;;172.13;64.72;;;3.40;99.90;;;;;;5016814;28;20335;-72
2022/01/10 02:29:59;;;;;;;181.80;65.40;;;3.50;99.90;;;;;;5002768;28;20054;-73
2022/01/10 02:32:26;;;;;;;162.27;65.57;;;3.40;99.90;;;;;;4998218;28;20041;-74
2022/01/10 02:34:52;;;;;;;174.80;70.93;;;3.40;99.90;;;;;;5000654;28;20049;-73
2022/01/10 02:37:31;;;;;;;180.73;68.80;;;3.40;99.90;;;;;;4999450;28;20045;-73
2022/01/10 02:39:59;;;;;;;178.27;69.80;;;3.50;99.90;;;;;;4985459;28;20049;-73
2022/01/10 02:42:26;;;;;;;189.98;72.50;;;3.50;99.90;;;;;;4995698;28;20092;-73
2022/01/10 02:44:54;;;;;;;171.32;69.28;;;3.50;99.90;;;;;;5001274;28;20132;-73
2022/01/10 02:47:21;;;;;;;167.40;66.35;;;3.50;99.90;;;;;;5020590;28;20046;-73
2022/01/10 02:49:48;;;;;;;189.60;70.30;;;3.40;99.90;;;;;;5003169;28;20065;-73
2022/01/10 02:52:15;;;;;;;175.32;68.50;;;3.40;99.90;;;;;;4999827;28;20513;-72
2022/01/10 02:54:42;;;;;;;177.48;69.85;;;3.40;99.90;;;;;;5018167;28;20293;-73
2022/01/10 02:57:15;;;;;;;167.82;69.60;;;3.40;99.90;;;;;;4984596;28;20376;-74
2022/01/10 02:59:42;;;;;;;172.43;71.50;;;3.40;99.90;;;;;;4984680;28;20034;-71
2022/01/10 03:02:10;;;;;;;174.18;71.60;;;3.40;99.90;;;;;;4993868;28;20052;-72
2022/01/10 03:04:39;;;;;;;162.65;67.88;;;3.40;99.90;;;;;;4997011;28;20081;-73
2022/01/10 03:07:06;;;;;;;176.30;73.30;;;3.40;99.90;;;;;;4994405;28;20622;-72
2022/01/10 03:09:35;;;;;;;179.65;69.82;;;3.40;99.90;;;;;;4981382;28;20448;-73
2022/01/10 03:12:02;;;;;;;173.98;70.88;;;3.40;99.90;;;;;;4969410;28;20052;-72
2022/01/10 03:14:28;;;;;;;179.48;70.38;;;3.40;99.90;;;;;;5015225;28;20116;-73
2022/01/10 03:16:55;;;;;;;159.88;70.43;;;3.40;99.90;;;;;;5015486;28;20045;-73
2022/01/10 03:19:22;;;;;;;178.95;71.32;;;3.40;99.90;;;;;;5000834;28;20115;-72
2022/01/10 03:21:48;;;;;;;169.43;69.38;;;3.40;99.90;;;;;;4999329;28;20049;-72
2022/01/10 03:24:15;;;;;;;173.50;71.22;;;3.30;99.90;;;;;;4998682;28;20049;-72
2022/01/10 03:26:43;;;;;;;163.68;72.00;;;3.40;99.90;;;;;;5009223;28;20056;-73
2022/01/10 03:29:09;;;;;;;164.85;70.97;;;3.40;99.90;;;;;;5015068;28;20061;-73
2022/01/10 03:31:37;;;;;;;175.82;73.28;;;3.40;99.90;;;;;;4982240;28;20340;-72
2022/01/10 03:34:06;;;;;;;175.80;72.40;;;3.40;99.90;;;;;;5000041;28;20054;-72
2022/01/10 03:36:33;;;;;;;180.18;69.97;;;3.30;99.90;;;;;;4997863;28;20327;-72
2022/01/10 03:39:00;;;;;;;176.65;73.65;;;3.40;99.90;;;;;;4986664;28;20120;-74
2022/01/10 03:41:27;;;;;;;179.25;73.53;;;3.40;99.90;;;;;;4996044;28;20078;-72
2022/01/10 03:43:54;;;;;;;189.13;76.05;;;3.40;99.90;;;;;;5000365;28;20054;-72
2022/01/10 03:46:21;;;;;;;179.85;71.70;;;3.40;99.90;;;;;;5001951;28;20776;-73
2022/01/10 03:48:48;;;;;;;191.35;75.80;;;3.40;99.90;;;;;;5000352;28;20514;-72
2022/01/10 03:51:15;;;;;;;172.40;70.50;;;3.40;99.90;;;;;;4980111;28;20296;-73
2022/01/10 03:53:42;;;;;;;182.35;71.82;;;3.40;99.90;;;;;;4999501;28;20053;-73
2022/01/10 03:56:09;;;;;;;179.88;70.78;;;3.40;99.90;;;;;;4997120;28;20345;-73
2022/01/10 03:58:38;;;;;;;173.93;69.78;;;3.50;99.90;;;;;;4998284;28;20049;-72
2022/01/10 04:01:08;;;;;;;173.60;75.53;;;3.50;99.90;;;;;;4998799;28;20108;-73
2022/01/10 04:03:37;;;;;;;181.85;73.30;;;3.40;99.90;;;;;;4997687;28;20356;-72
2022/01/10 04:06:09;;;;;;;177.43;72.63;;;3.40;99.90;;;;;;4983290;28;20042;-76
2022/01/10 04:08:36;;;;;;;180.15;72.25;;;3.50;99.90;;;;;;4982275;28;20329;-72
2022/01/10 04:11:04;;;;;;;171.45;69.35;;;3.40;99.90;;;;;;4982518;28;20827;-72
2022/01/10 04:13:33;;;;;;;181.85;72.50;;;3.40;99.90;;;;;;4999530;28;20042;-73
2022/01/10 04:16:00;;;;;;;185.02;72.05;;;3.40;99.90;;;;;;4996025;28;20072;-75
2022/01/10 04:18:27;;;;;;;168.20;72.35;;;3.30;99.90;;;;;;5014383;28;20065;-74
2022/01/10 04:20:54;;;;;;;170.70;69.75;;;3.30;99.90;;;;;;5014027;28;20042;-72
2022/01/10 04:23:21;;;;;;;169.85;68.97;;;3.40;99.90;;;;;;4999286;28;20052;-73
2022/01/10 04:25:48;;;;;;;154.50;70.43;;;3.30;99.90;;;;;;5007905;28;20046;-73
2022/01/10 04:28:16;;;;;;;163.02;70.10;;;3.30;99.90;;;;;;4972629;28;20184;-73
2022/01/10 04:30:44;;;;;;;176.68;70.75;;;3.30;99.90;;;;;;4980620;28;20533;-73
2022/01/10 04:33:16;;;;;;;164.82;69.55;;;3.30;99.90;;;;;;4996131;28;20355;-74
2022/01/10 04:35:44;;;;;;;173.50;73.75;;;3.30;99.90;;;;;;4980322;28;20072;-73
2022/01/10 04:38:11;;;;;;;171.68;73.32;;;3.30;99.90;;;;;;4997704;28;20049;-72
2022/01/10 04:40:38;;;;;;;173.23;71.82;;;3.30;99.90;;;;;;5013110;28;20045;-73
2022/01/10 04:43:06;;;;;;;178.70;72.22;;;3.30;99.90;;;;;;4995556;28;20046;-73
2022/01/10 04:45:33;;;;;;;179.93;73.53;;;3.30;99.90;;;;;;5014242;28;20058;-74
2022/01/10 04:48:00;;;;;;;176.20;71.88;;;3.30;99.90;;;;;;5005592;28;20050;-74
2022/01/10 04:53:27;;;;;;;184.45;73.20;;;3.40;99.90;;;;;;4986513;28;20137;-74
2022/01/10 04:55:54;;;;;;;195.15;73.60;;;3.30;99.90;;;;;;4996685;28;20041;-73
2022/01/10 04:58:21;;;;;;;190.20;78.60;;;3.30;99.90;;;;;;5014456;28;20054;-74
2022/01/10 05:00:50;;;;;;;185.02;75.35;;;3.40;99.90;;;;;;4996488;28;20481;-74
2022/01/10 05:03:17;;;;;;;204.23;76.13;;;3.40;99.90;;;;;;4999347;28;20137;-74
2022/01/10 05:05:48;;;;;;;186.98;75.68;;;3.40;99.90;;;;;;4997588;28;20290;-74
2022/01/10 05:08:15;;;;;;;195.70;76.72;;;3.40;99.90;;;;;;4998770;28;20592;-73
2022/01/10 05:10:42;;;;;;;201.23;76.88;;;3.40;99.90;;;;;;4998867;28;20057;-72
2022/01/10 05:13:09;;;;;;;210.98;82.35;;;3.40;99.90;;;;;;5018480;28;20053;-73
2022/01/10 05:15:36;;;;;;;210.90;80.90;;;3.40;99.90;;;;;;5016786;28;20045;-72
2022/01/10 05:18:03;;;;;;;190.90;77.32;;;3.40;99.90;;;;;;5001876;28;20053;-72
2022/01/10 05:20:30;;;;;;;198.15;75.75;;;3.30;99.90;;;;;;4985355;28;20540;-73
2022/01/10 05:22:57;;;;;;;200.70;79.25;;;3.40;99.90;;;;;;5001376;28;20073;-73
2022/01/10 05:25:24;;;;;;;186.15;74.43;;;3.40;99.90;;;;;;4985021;28;20085;-73
2022/01/10 05:27:51;;;;;;;189.55;76.53;;;3.50;99.90;;;;;;5001342;28;20465;-72
2022/01/10 05:30:18;;;;;;;181.73;76.97;;;3.50;99.90;;;;;;4982978;28;20755;-74
2022/01/10 05:32:45;;;;;;;199.60;74.45;;;3.50;99.90;;;;;;5000213;28;20546;-74
2022/01/10 05:35:30;;;;;;;200.40;76.40;;;3.50;99.90;;;;;;5000374;28;20387;-74
2022/01/10 05:37:57;;;;;;;199.07;78.75;;;3.50;99.90;;;;;;5001138;28;20057;-73
2022/01/10 05:40:23;;;;;;;203.85;76.80;;;3.50;99.90;;;;;;5000835;28;20042;-75
2022/01/10 05:42:50;;;;;;;202.50;80.15;;;3.50;99.90;;;;;;5016768;28;20057;-75
2022/01/10 05:45:18;;;;;;;212.70;80.25;;;3.50;99.90;;;;;;5003386;28;20042;-75
2022/01/10 05:47:46;;;;;;;211.13;83.28;;;3.50;99.90;;;;;;4973060;28;20046;-74
2022/01/10 05:50:31;;;;;;;196.82;77.47;;;3.40;99.90;;;;;;5006985;28;20057;-76
2022/01/10 05:52:59;;;;;;;214.88;80.57;;;3.40;99.90;;;;;;5004620;28;20038;-76
2022/01/10 05:55:26;;;;;;;219.57;81.03;;;3.40;99.90;;;;;;5002664;28;20485;-76
2022/01/10 05:57:54;;;;;;;208.82;84.63;;;3.50;99.90;;;;;;5018313;28;20050;-75
2022/01/10 06:00:22;;;;;;;217.77;85.53;;;3.40;99.90;;;;;;5000184;28;20297;-74
2022/01/10 06:02:49;;;;;;;208.98;83.75;;;3.50;99.90;;;;;;5001422;28;20038;-74
2022/01/10 06:05:31;;;;;;;217.77;85.85;;;3.50;99.90;;;;;;4985796;28;20545;-74
2022/01/10 06:08:05;;;;;;;228.90;81.40;;;3.50;99.90;;;;;;5000994;28;20046;-75
2022/01/10 06:10:33;;;;;;;215.38;82.88;;;3.40;99.90;;;;;;5000869;28;20423;-74
2022/01/10 06:13:13;;;;;;;210.45;83.10;;;3.40;99.90;;;;;;5001626;28;20502;-75
2022/01/10 06:15:41;;;;;;;223.23;80.22;;;3.40;99.90;;;;;;4984614;28;20164;-75
2022/01/10 06:18:08;;;;;;;195.48;77.47;;;3.60;99.90;;;;;;5000835;28;20577;-74
2022/01/10 06:20:35;;;;;;;222.82;80.63;;;3.60;99.90;;;;;;5000205;28;20038;-75
2022/01/10 06:23:02;;;;;;;208.07;78.00;;;3.60;99.90;;;;;;4999767;28;20056;-74
2022/01/10 06:25:29;;;;;;;202.57;78.90;;;3.50;99.90;;;;;;4963877;23;20045;-77
2022/01/10 06:27:57;;;;;;;197.63;80.55;;;3.40;99.90;;;;;;4985756;28;20064;-76
2022/01/10 06:30:25;;;;;;;197.30;78.63;;;3.40;99.90;;;;;;5012944;28;20125;-76
2022/01/10 06:32:53;;;;;;;188.32;76.78;;;3.40;99.90;;;;;;5002660;28;20133;-76
2022/01/10 06:35:22;;;;;;;202.10;80.30;;;3.50;99.90;;;;;;5021654;28;20148;-76
2022/01/10 06:37:51;;;;;;;189.07;78.85;;;3.50;99.90;;;;;;5022056;28;20076;-76
2022/01/10 06:40:20;;;;;;;229.57;83.35;;;3.60;99.90;;;;;;5021695;28;20057;-76
2022/01/10 06:42:48;;;;;;;273.48;105.45;;;3.60;99.90;;;;;;5023121;28;20046;-76
2022/01/10 06:45:18;;;;;;;212.45;85.97;;;3.60;99.90;;;;;;5021428;28;20073;-76
2022/01/10 06:47:45;;;;;;;203.73;84.53;;;3.50;99.90;;;;;;5021561;28;20049;-76
2022/01/10 06:50:13;;;;;;;225.02;82.78;;;3.40;99.90;;;;;;5038387;28;20747;-76
2022/01/10 06:52:43;;;;;;;224.73;86.07;;;3.40;99.90;;;;;;5037290;28;20045;-75
2022/01/10 06:55:10;;;;;;;218.35;86.55;;;3.40;99.90;;;;;;5019132;28;20054;-76
2022/01/10 06:57:38;;;;;;;213.30;83.15;;;3.40;99.90;;;;;;5008278;28;20188;-76
2022/01/10 07:00:07;;;;;;;223.82;84.82;;;3.40;99.90;;;;;;5023022;28;20064;-76
2022/01/10 07:02:43;;;;;;;217.65;84.63;;;3.50;99.90;;;;;;5026288;28;20040;-75
2022/01/10 07:05:11;;;;;;;223.40;85.72;;;3.60;99.90;;;;;;5055205;28;20053;-76
2022/01/10 07:07:38;;;;;;;225.93;85.25;;;3.50;99.90;;;;;;5038885;28;20053;-76
2022/01/10 07:10:16;;;;;;;201.35;70.32;;;3.50;99.90;;;;;;5022395;28;20057;-76
2022/01/10 07:12:43;;;;;;;157.30;67.55;;;3.30;99.90;;;;;;5021904;28;20053;-75
2022/01/10 07:15:10;;;;;;;147.95;62.10;;;3.20;99.90;;;;;;5004099;28;20060;-74
2022/01/10 07:17:36;;;;;;;149.65;67.57;;;3.10;99.90;;;;;;5038482;28;20053;-76
2022/01/10 07:20:06;;;;;;;160.15;68.72;;;3.20;99.90;;;;;;5007636;28;20457;-76
2022/01/10 07:22:38;;;;;;;163.95;68.95;;;3.30;99.90;;;;;;5022986;28;20049;-76
2022/01/10 07:25:07;;;;;;;139.40;66.45;;;3.30;99.90;;;;;;5035653;28;20144;-74
2022/01/10 07:27:34;;;;;;;142.25;65.18;;;3.30;99.90;;;;;;5023067;28;20099;-76
2022/01/10 07:30:03;;;;;;;154.02;68.03;;;3.40;99.90;;;;;;5022922;28;20045;-76
2022/01/10 07:32:30;;;;;;;153.18;65.82;;;3.40;99.90;;;;;;5031489;28;20053;-75
2022/01/10 07:34:57;;;;;;;140.05;66.38;;;3.60;99.90;;;;;;5043296;28;20072;-77
2022/01/10 07:37:25;;;;;;;167.38;71.82;;;3.50;99.90;;;;;;5022370;28;20049;-76
2022/01/10 07:39:51;;;;;;;184.80;74.18;;;3.40;99.90;;;;;;5022507;28;20054;-76
2022/01/10 07:42:18;;;;;;;189.70;81.82;;;3.40;99.90;;;;;;5022805;28;20041;-75
2022/01/10 07:44:51;;;;;;;197.68;86.45;;;3.30;99.90;;;;;;5022533;28;20050;-76
2022/01/10 07:47:18;;;;;;;183.18;77.22;;;3.20;99.90;;;;;;5021984;28;20041;-76
2022/01/10 07:49:44;;;;;;;193.63;79.55;;;3.10;99.90;;;;;;5020262;28;20069;-76
2022/01/10 07:52:12;;;;;;;175.43;73.07;;;3.10;99.90;;;;;;5037141;28;20147;-76
2022/01/10 07:54:39;;;;;;;186.07;76.68;;;3.10;99.90;;;;;;5022158;28;20072;-76
2022/01/10 07:57:06;;;;;;;174.45;73.72;;;3.10;99.90;;;;;;5003760;28;20081;-76
2022/01/10 07:59:32;;;;;;;202.90;80.70;;;3.10;99.90;;;;;;5003720;28;20049;-77
2022/01/10 08:01:59;;;;;;;197.35;75.90;;;3.10;99.90;;;;;;5034748;28;20512;-75
2022/01/10 08:04:26;;;;;;;201.55;75.57;;;3.20;99.90;;;;;;5037136;28;20045;-76
2022/01/10 08:06:53;;;;;;;201.55;75.90;;;3.20;99.90;;;;;;5019901;28;20509;-76
2022/01/10 08:09:20;;;;;;;194.82;76.40;;;3.20;99.90;;;;;;5040351;28;20075;-76
2022/01/10 08:11:46;;;;;;;161.57;67.63;;;3.10;99.90;;;;;;5051605;28;20076;-76
2022/01/10 08:14:13;;;;;;;164.93;63.75;;;3.10;99.90;;;;;;5023038;28;20530;-76
2022/01/10 08:16:40;;;;;;;160.93;65.05;;;3.00;99.90;;;;;;5021820;28;20107;-76
2022/01/10 08:19:07;;;;;;;149.40;64.72;;;2.90;99.90;;;;;;5020688;28;20155;-76
2022/01/10 08:21:34;;;;;;;144.45;63.55;;;2.90;99.90;;;;;;5007968;28;20041;-77
2022/01/10 08:24:00;;;;;;;142.55;62.42;;;3.00;99.90;;;;;;4999905;28;20140;-76
2022/01/10 08:26:28;;;;;;;148.77;63.10;;;3.10;99.90;;;;;;5001912;28;20091;-78
2022/01/10 08:28:54;;;;;;;157.23;63.00;;;3.10;99.90;;;;;;5021299;28;20045;-76
2022/01/10 08:31:21;;;;;;;161.35;65.82;;;3.10;99.90;;;;;;5005656;28;20768;-76
2022/01/10 08:33:48;;;;;;;151.60;66.97;;;3.10;99.90;;;;;;5000549;28;20045;-76
2022/01/10 08:36:15;;;;;;;144.80;61.58;;;3.20;99.90;;;;;;5015243;28;20057;-77
2022/01/10 08:38:41;;;;;;;148.02;60.00;;;3.20;99.90;;;;;;5001995;28;20050;-76
2022/01/10 08:41:08;;;;;;;133.85;58.60;;;3.20;99.90;;;;;;5016876;28;20128;-77
2022/01/10 08:43:35;;;;;;;137.73;59.38;;;3.20;99.90;;;;;;5000669;28;20050;-76
2022/01/10 08:46:02;;;;;;;127.30;56.40;;;3.30;99.90;;;;;;4999649;28;20139;-76
2022/01/10 08:48:42;;;;;;;134.20;60.50;;;3.30;99.90;;;;;;4979822;28;20057;-76
2022/01/10 08:51:09;;;;;;;140.05;61.13;;;3.20;99.90;;;;;;5001193;28;20046;-76
2022/01/10 08:53:36;;;;;;;139.98;61.58;;;3.30;99.90;;;;;;4999764;28;20069;-76
2022/01/10 08:56:03;;;;;;;147.30;64.20;;;3.40;99.90;;;;;;5001930;28;20463;-76
2022/01/10 08:58:32;;;;;;;150.95;62.15;;;3.40;99.90;;;;;;5001417;28;20297;-76
2022/01/10 09:01:05;;;;;;;138.10;57.65;;;3.40;99.90;;;;;;4999213;28;20057;-76
2022/01/10 09:03:33;;;;;;;117.32;51.72;;;3.40;99.90;;;;;;5013650;28;20050;-76
2022/01/10 09:06:00;;;;;;;112.72;49.85;;;3.50;99.90;;;;;;5018948;28;20121;-76
2022/01/10 09:08:31;;;;;;;131.27;54.50;;;3.50;99.90;;;;;;5000384;28;20034;-77
2022/01/10 09:10:59;;;;;;;140.00;57.85;;;3.50;99.90;;;;;;4999824;28;20046;-77
2022/01/10 09:13:26;;;;;;;157.23;60.67;;;3.50;99.90;;;;;;5001428;28;20498;-76
2022/01/10 09:15:52;;;;;;;150.27;63.30;;;3.60;99.90;;;;;;5016153;28;20127;-77
2022/01/10 09:18:20;;;;;;;198.70;73.97;;;3.70;99.90;;;;;;4983086;28;20210;-76
2022/01/10 09:20:47;;;;;;;213.93;74.18;;;3.70;99.90;;;;;;4999600;28;20061;-76
2022/01/10 09:23:14;;;;;;;225.02;78.60;;;3.70;99.90;;;;;;4983166;28;20073;-76
2022/01/10 09:25:42;;;;;;;213.23;75.45;;;3.70;99.90;;;;;;4999974;28;20077;-77
2022/01/10 09:28:08;;;;;;;220.50;77.95;;;3.70;99.90;;;;;;4999549;28;20104;-77
2022/01/10 09:30:35;;;;;;;218.77;76.97;;;3.80;99.90;;;;;;4998525;28;20138;-77
2022/01/10 09:33:02;;;;;;;236.45;78.63;;;3.80;99.90;;;;;;5016149;28;20045;-76
2022/01/10 09:35:29;;;;;;;264.73;85.20;;;3.70;99.90;;;;;;4998572;28;20058;-76
2022/01/10 09:37:56;;;;;;;244.48;80.20;;;3.60;99.90;;;;;;5000187;28;20108;-76
2022/01/10 09:40:22;;;;;;;244.02;80.22;;;3.60;99.90;;;;;;4999221;28;20148;-77
2022/01/10 09:42:50;;;;;;;235.95;80.68;;;3.50;99.90;;;;;;4999015;28;20053;-76
2022/01/10 09:45:18;;;;;;;215.25;74.82;;;3.60;99.90;;;;;;5000813;28;20054;-76
2022/01/10 09:47:45;;;;;;;245.27;79.88;;;3.60;99.90;;;;;;5000587;28;20046;-76
2022/01/10 09:50:16;;;;;;;241.73;81.80;;;3.50;99.90;;;;;;4999445;28;20579;-76
2022/01/10 09:52:47;;;;;;;211.75;76.63;;;3.50;99.90;;;;;;4999670;28;20153;-77
2022/01/10 09:55:14;;;;;;;226.40;83.50;;;3.50;99.90;;;;;;5004249;28;20514;-77
2022/01/10 09:57:41;;;;;;;207.10;75.07;;;3.50;99.90;;;;;;5004939;28;20041;-76
2022/01/10 10:00:09;;;;;;;204.68;71.43;;;3.50;99.90;;;;;;5002790;28;20038;-76
2022/01/10 10:02:41;;;;;;;196.65;72.35;;;3.60;99.90;;;;;;5016165;28;20049;-76
2022/01/10 10:05:10;;;;;;;198.88;71.35;;;3.60;99.90;;;;;;5003441;28;20053;-76
2022/01/10 10:07:38;;;;;;;202.00;75.05;;;3.60;99.90;;;;;;4998077;28;20344;-76
2022/01/10 10:10:11;;;;;;;199.32;73.35;;;3.70;99.90;;;;;;4982568;28;20058;-77
2022/01/10 10:12:40;;;;;;;198.88;75.05;;;3.70;99.90;;;;;;5002506;28;20112;-77
2022/01/10 10:15:09;;;;;;;200.82;76.47;;;3.60;99.90;;;;;;5002579;28;20564;-77
2022/01/10 10:17:37;;;;;;;200.85;74.93;;;3.60;99.90;;;;;;5017914;28;20073;-76
2022/01/10 10:20:10;;;;;;;226.10;80.57;;;3.70;99.90;;;;;;5001624;28;20733;-76
2022/01/10 10:22:55;;;;;;;220.85;80.88;;;3.60;99.90;;;;;;4998106;28;20103;-76
2022/01/10 10:25:22;;;;;;;224.38;78.43;;;3.60;99.90;;;;;;4982229;28;20142;-77
2022/01/10 10:27:49;;;;;;;222.65;78.57;;;3.60;99.90;;;;;;5000367;28;20100;-77
2022/01/10 10:30:22;;;;;;;218.82;80.45;;;3.60;99.90;;;;;;5004762;28;20145;-76
2022/01/10 10:32:50;;;;;;;211.50;78.35;;;3.60;99.90;;;;;;5036984;28;20049;-76
2022/01/10 10:35:17;;;;;;;209.65;78.97;;;3.60;99.90;;;;;;5056716;28;20048;-76
2022/01/10 10:37:44;;;;;;;213.32;76.28;;;3.60;99.90;;;;;;5042052;28;20126;-77
2022/01/10 10:40:14;;;;;;;235.00;80.28;;;3.60;99.90;;;;;;5057343;28;20064;-76
2022/01/10 10:42:43;;;;;;;210.88;77.90;;;3.60;99.90;;;;;;5029267;28;20365;-76
2022/01/10 10:45:13;;;;;;;216.85;76.38;;;3.70;99.90;;;;;;5022325;28;20135;-76
2022/01/10 10:47:43;;;;;;;220.30;78.30;;;3.70;99.90;;;;;;4996606;28;20046;-77
2022/01/10 10:50:10;;;;;;;203.75;74.38;;;3.80;99.90;;;;;;4983146;28;20524;-76
2022/01/10 10:52:40;;;;;;;220.27;77.68;;;3.70;99.90;;;;;;4991174;28;20084;-76
2022/01/10 10:55:10;;;;;;;215.82;80.43;;;3.80;99.90;;;;;;5017715;28;20146;-76
2022/01/10 10:57:37;;;;;;;213.10;74.57;;;3.80;99.90;;;;;;5018685;28;20038;-77
2022/01/10 11:00:07;;;;;;;201.65;78.15;;;3.80;99.90;;;;;;5001101;28;20292;-76
2022/01/10 11:02:34;;;;;;;205.75;73.78;;;3.80;99.90;;;;;;5033206;28;20540;-76
2022/01/10 11:05:04;;;;;;;211.70;75.63;;;3.80;99.90;;;;;;5042090;28;20059;-75
2022/01/10 11:07:34;;;;;;;216.73;80.13;;;3.80;99.90;;;;;;5016121;28;20120;-76
2022/01/10 11:10:13;;;;;;;216.10;76.05;;;3.90;99.90;;;;;;5002454;28;20049;-76
2022/01/10 11:12:44;;;;;;;222.63;80.80;;;3.90;99.90;;;;;;5005260;28;20046;-77
2022/01/10 11:15:10;;;;;;;200.52;75.40;;;4.00;99.90;;;;;;5004069;28;20054;-76
2022/01/10 11:17:41;;;;;;;220.40;76.72;;;4.00;99.90;;;;;;5021632;28;20481;-77
2022/01/10 11:20:18;;;;;;;193.57;71.18;;;4.00;99.90;;;;;;5019920;28;20502;-76
2022/01/10 11:22:48;;;;;;;194.82;69.75;;;3.90;99.90;;;;;;5004021;28;20362;-76
2022/01/10 11:25:20;;;;;;;196.65;73.45;;;3.80;99.90;;;;;;5003270;28;20054;-76
2022/01/10 11:27:48;;;;;;;196.88;75.50;;;3.90;99.90;;;;;;5021914;28;20438;-76
2022/01/10 11:30:42;;;;;;;216.73;79.25;;;4.00;99.90;;;;;;5021827;28;20136;-77
2022/01/10 11:33:11;;;;;;;208.45;74.70;;;4.00;99.90;;;;;;5038740;28;20140;-77
2022/01/10 11:35:55;;;;;;;178.15;69.15;;;4.00;99.90;;;;;;5055755;28;20053;-76
2022/01/10 11:38:32;;;;;;;183.02;70.70;;;4.10;99.90;;;;;;5041317;28;20182;-77
2022/01/10 11:41:04;;;;;;;195.15;71.72;;;4.10;99.90;;;;;;5039673;28;20057;-77
2022/01/10 11:43:37;;;;;;;185.50;68.63;;;4.10;99.90;;;;;;5021306;28;20085;-77
2022/01/10 11:46:16;;;;;;;179.82;69.53;;;4.10;99.90;;;;;;5020327;28;20460;-77
2022/01/10 11:48:58;;;;;;;186.18;72.50;;;4.00;99.90;;;;;;5017886;28;20045;-76
2022/01/10 11:51:37;;;;;;;199.98;72.78;;;4.10;99.90;;;;;;5020523;28;20108;-76
2022/01/10 11:54:17;;;;;;;196.43;72.47;;;4.00;99.90;;;;;;4999368;28;20061;-76
2022/01/10 11:57:06;;;;;;;182.13;69.45;;;4.00;99.90;;;;;;5013891;28;20049;-77
2022/01/10 11:59:33;;;;;;;197.38;68.95;;;4.00;99.90;;;;;;4997983;28;20053;-76
2022/01/10 12:02:22;;;;;;;184.30;68.25;;;4.00;99.90;;;;;;5023556;28;20076;-77
2022/01/10 12:05:01;;;;;;;190.98;69.43;;;4.00;99.90;;;;;;5035774;28;20048;-76
2022/01/10 12:07:28;;;;;;;189.52;71.28;;;4.10;99.90;;;;;;4998861;28;20148;-76
2022/01/10 12:10:12;;;;;;;194.38;71.18;;;4.20;99.90;;;;;;4999800;28;20069;-76
2022/01/10 12:12:41;;;;;;;179.60;68.38;;;4.20;99.90;;;;;;5005450;28;20049;-76
2022/01/10 12:15:08;;;;;;;182.25;65.85;;;4.20;99.90;;;;;;5002956;28;20107;-76
2022/01/10 12:17:37;;;;;;;166.63;63.13;;;4.10;99.90;;;;;;5020752;28;20494;-76
2022/01/10 12:20:07;;;;;;;168.50;64.45;;;4.10;99.90;;;;;;5020557;28;20069;-76
2022/01/10 12:22:35;;;;;;;180.35;67.88;;;4.00;99.90;;;;;;5018884;28;20464;-76
2022/01/10 12:25:02;;;;;;;170.48;65.50;;;4.00;99.90;;;;;;5020902;28;20621;-75
2022/01/10 12:27:29;;;;;;;165.25;60.25;;;4.10;99.90;;;;;;5022080;23;20042;-84
2022/01/10 12:29:55;;;;;;;157.25;59.85;;;4.10;99.90;;;;;;5018776;28;20042;-83
2022/01/10 12:32:22;;;;;;;168.25;64.03;;;4.20;99.90;;;;;;4988592;28;20049;-83
2022/01/10 12:34:49;;;;;;;175.27;65.38;;;4.20;99.90;;;;;;5010991;28;20050;-81
2022/01/10 12:37:16;;;;;;;164.40;63.45;;;4.20;99.90;;;;;;4996287;28;20048;-83
2022/01/10 12:39:43;;;;;;;169.32;62.60;;;4.40;99.90;;;;;;4996882;28;20056;-83
2022/01/10 12:42:11;;;;;;;159.80;62.38;;;4.50;99.90;;;;;;4981507;28;20054;-82
2022/01/10 12:44:38;;;;;;;156.68;63.35;;;4.40;99.90;;;;;;4979638;28;20062;-82
2022/01/10 12:47:05;;;;;;;159.77;62.30;;;4.50;99.90;;;;;;4980484;28;20081;-84
2022/01/10 12:49:34;;;;;;;158.90;60.80;;;4.50;99.90;;;;;;4996840;28;20051;-82